sensor_id;sensor_type;location;lat;lon;timestamp;temperature;humidity
35607;DHT22;21729;58.392;15.656;2023-04-29T00:01:38;3.30;99.90
35607;DHT22;21729;58.392;15.656;2023-04-29T00:04:06;3.40;99.90
35607;DHT22;21729;58.392;15.656;2023-04-29T00:06:35;3.40;99.90
35607;DHT22;21729;58.392;15.656;2023-04-29T00:09:04;3.30;99.90
35607;DHT22;21729;58.392;15.656;2023-04-29T00:11:31;3.30;99.90
35607;DHT22;21729;58.392;15.656;2023-04-29T00:13:58;3.30;99.90
35607;DHT22;21729;58.392;15.656;2023-04-29T00:16:26;3.30;99.90
35607;DHT22;21729;58.392;15.656;2023-04-29T00:18:54;3.30;99.90
35607;DHT22;21729;58.392;15.656;2023-04-29T00:21:21;3.20;99.90
35607;DHT22;21729;58.392;15.656;2023-04-29T00:23:48;3.30;99.90
35607;DHT22;21729;58.392;15.656;2023-04-29T00:26:17;3.30;99.90
35607;DHT22;21729;58.392;15.656;2023-04-29T00:28:44;3.30;99.90
35607;DHT22;21729;58.392;15.656;2023-04-29T00:31:11;3.30;99.90
35607;DHT22;21729;58.392;15.656;2023-04-29T00:33:39;3.20;99.90
35607;DHT22;21729;58.392;15.656;2023-04-29T00:36:06;3.20;99.90
35607;DHT22;21729;58.392;15.656;2023-04-29T00:38:34;3.30;99.90
35607;DHT22;21729;58.392;15.656;2023-04-29T00:41:01;3.40;99.90
35607;DHT22;21729;58.392;15.656;2023-04-29T00:43:30;3.30;99.90
35607;DHT22;21729;58.392;15.656;2023-04-29T00:45:57;3.30;99.90
35607;DHT22;21729;58.392;15.656;2023-04-29T00:48:25;3.30;99.90
35607;DHT22;21729;58.392;15.656;2023-04-29T00:50:52;3.30;99.90
35607;DHT22;21729;58.392;15.656;2023-04-29T00:53:19;3.30;99.90
35607;DHT22;21729;58.392;15.656;2023-04-29T00:55:47;3.30;99.90
35607;DHT22;21729;58.392;15.656;2023-04-29T00:58:17;3.30;99.90
35607;DHT22;21729;58.392;15.656;2023-04-29T01:00:45;3.30;99.90
35607;DHT22;21729;58.392;15.656;2023-04-29T01:03:14;3.30;99.90
35607;DHT22;21729;58.392;15.656;2023-04-29T01:05:43;3.30;99.90
35607;DHT22;21729;58.392;15.656;2023-04-29T01:08:19;3.30;99.90
35607;DHT22;21729;58.392;15.656;2023-04-29T01:10:53;3.30;99.90
35607;DHT22;21729;58.392;15.656;2023-04-29T01:13:29;3.40;99.90
35607;DHT22;21729;58.392;15.656;2023-04-29T01:16:01;3.40;99.90
35607;DHT22;21729;58.392;15.656;2023-04-29T01:18:32;3.40;99.90
35607;DHT22;21729;58.392;15.656;2023-04-29T01:20:59;3.40;99.90
35607;DHT22;21729;58.392;15.656;2023-04-29T01:23:28;3.40;99.90
35607;DHT22;21729;58.392;15.656;2023-04-29T01:25:56;3.50;99.90
35607;DHT22;21729;58.392;15.656;2023-04-29T01:28:38;3.50;99.90
35607;DHT22;21729;58.392;15.656;2023-04-29T01:31:12;3.50;99.90
35607;DHT22;21729;58.392;15.656;2023-04-29T01:33:47;3.50;99.90
35607;DHT22;21729;58.392;15.656;2023-04-29T01:36:22;3.50;99.90
35607;DHT22;21729;58.392;15.656;2023-04-29T01:38:59;3.60;99.90
35607;DHT22;21729;58.392;15.656;2023-04-29T01:41:34;3.60;99.90
35607;DHT22;21729;58.392;15.656;2023-04-29T01:44:07;3.70;99.90
35607;DHT22;21729;58.392;15.656;2023-04-29T01:46:35;3.70;99.90
35607;DHT22;21729;58.392;15.656;2023-04-29T01:49:02;3.60;99.90
35607;DHT22;21729;58.392;15.656;2023-04-29T01:51:29;3.70;99.90
35607;DHT22;21729;58.392;15.656;2023-04-29T01:54:00;3.80;99.90
35607;DHT22;21729;58.392;15.656;2023-04-29T01:56:27;3.80;99.90
35607;DHT22;21729;58.392;15.656;2023-04-29T01:58:54;3.80;99.90
35607;DHT22;21729;58.392;15.656;2023-04-29T02:01:21;3.80;99.90
35607;DHT22;21729;58.392;15.656;2023-04-29T02:03:48;3.80;99.90
35607;DHT22;21729;58.392;15.656;2023-04-29T02:06:15;3.80;99.90
35607;DHT22;21729;58.392;15.656;2023-04-29T02:08:42;3.80;99.90
35607;DHT22;21729;58.392;15.656;2023-04-29T02:11:11;3.80;99.90
35607;DHT22;21729;58.392;15.656;2023-04-29T02:13:38;3.80;99.90
35607;DHT22;21729;58.392;15.656;2023-04-29T02:16:08;3.80;99.90
35607;DHT22;21729;58.392;15.656;2023-04-29T02:18:35;3.80;99.90
35607;DHT22;21729;58.392;15.656;2023-04-29T02:21:03;3.80;99.90
35607;DHT22;21729;58.392;15.656;2023-04-29T02:23:30;3.80;99.90
35607;DHT22;21729;58.392;15.656;2023-04-29T02:25:57;3.80;99.90
35607;DHT22;21729;58.392;15.656;2023-04-29T02:28:25;3.70;99.90
35607;DHT22;21729;58.392;15.656;2023-04-29T02:30:52;3.70;99.90
35607;DHT22;21729;58.392;15.656;2023-04-29T02:33:20;3.80;99.90
35607;DHT22;21729;58.392;15.656;2023-04-29T02:35:47;3.80;99.90
35607;DHT22;21729;58.392;15.656;2023-04-29T02:38:14;3.80;99.90
35607;DHT22;21729;58.392;15.656;2023-04-29T02:40:41;3.80;99.90
35607;DHT22;21729;58.392;15.656;2023-04-29T02:43:09;3.80;99.90
35607;DHT22;21729;58.392;15.656;2023-04-29T02:45:38;3.80;99.90
35607;DHT22;21729;58.392;15.656;2023-04-29T02:48:06;3.80;99.90
35607;DHT22;21729;58.392;15.656;2023-04-29T02:50:33;3.80;99.90
35607;DHT22;21729;58.392;15.656;2023-04-29T02:53:00;3.70;99.90
35607;DHT22;21729;58.392;15.656;2023-04-29T02:55:27;3.70;99.90
35607;DHT22;21729;58.392;15.656;2023-04-29T02:57:54;3.70;99.90
35607;DHT22;21729;58.392;15.656;2023-04-29T03:00:21;3.60;99.90
35607;DHT22;21729;58.392;15.656;2023-04-29T03:02:50;3.70;99.90
35607;DHT22;21729;58.392;15.656;2023-04-29T03:05:17;3.70;99.90
35607;DHT22;21729;58.392;15.656;2023-04-29T03:07:44;3.70;99.90
35607;DHT22;21729;58.392;15.656;2023-04-29T03:10:11;3.70;99.90
35607;DHT22;21729;58.392;15.656;2023-04-29T03:12:38;3.70;99.90
35607;DHT22;21729;58.392;15.656;2023-04-29T03:15:06;3.70;99.90
35607;DHT22;21729;58.392;15.656;2023-04-29T03:17:35;3.70;99.90
35607;DHT22;21729;58.392;15.656;2023-04-29T03:20:05;3.80;99.90
35607;DHT22;21729;58.392;15.656;2023-04-29T03:22:32;3.80;99.90
35607;DHT22;21729;58.392;15.656;2023-04-29T03:24:59;3.80;99.90
35607;DHT22;21729;58.392;15.656;2023-04-29T03:27:26;3.80;99.90
35607;DHT22;21729;58.392;15.656;2023-04-29T03:29:53;3.80;99.90
35607;DHT22;21729;58.392;15.656;2023-04-29T03:32:20;3.90;99.90
35607;DHT22;21729;58.392;15.656;2023-04-29T03:34:48;3.80;99.90
35607;DHT22;21729;58.392;15.656;2023-04-29T03:37:17;3.90;99.90
35607;DHT22;21729;58.392;15.656;2023-04-29T03:39:44;3.90;99.90
35607;DHT22;21729;58.392;15.656;2023-04-29T03:42:11;4.00;99.90
35607;DHT22;21729;58.392;15.656;2023-04-29T03:44:38;4.00;99.90
35607;DHT22;21729;58.392;15.656;2023-04-29T03:47:05;3.90;99.90
35607;DHT22;21729;58.392;15.656;2023-04-29T03:49:33;4.00;99.90
35607;DHT22;21729;58.392;15.656;2023-04-29T03:52:00;4.00;99.90
35607;DHT22;21729;58.392;15.656;2023-04-29T03:54:29;4.20;99.90
35607;DHT22;21729;58.392;15.656;2023-04-29T03:56:56;4.20;99.90
35607;DHT22;21729;58.392;15.656;2023-04-29T03:59:23;4.20;99.90
35607;DHT22;21729;58.392;15.656;2023-04-29T04:01:50;4.10;99.90
35607;DHT22;21729;58.392;15.656;2023-04-29T04:04:18;4.50;99.90
35607;DHT22;21729;58.392;15.656;2023-04-29T04:06:46;4.50;99.90
35607;DHT22;21729;58.392;15.656;2023-04-29T04:09:16;4.60;99.90
35607;DHT22;21729;58.392;15.656;2023-04-29T04:11:45;4.70;99.90
35607;DHT22;21729;58.392;15.656;2023-04-29T04:14:12;4.70;99.90
35607;DHT22;21729;58.392;15.656;2023-04-29T04:16:40;4.90;1.00
35607;DHT22;21729;58.392;15.656;2023-04-29T04:19:07;5.20;1.00
35607;DHT22;21729;58.392;15.656;2023-04-29T04:21:34;5.30;1.00
35607;DHT22;21729;58.392;15.656;2023-04-29T04:24:02;5.40;1.00
35607;DHT22;21729;58.392;15.656;2023-04-29T04:26:29;5.50;1.00
35607;DHT22;21729;58.392;15.656;2023-04-29T04:28:57;5.50;1.00
35607;DHT22;21729;58.392;15.656;2023-04-29T04:31:24;5.60;1.00
35607;DHT22;21729;58.392;15.656;2023-04-29T04:33:52;5.70;1.00
35607;DHT22;21729;58.392;15.656;2023-04-29T04:36:19;5.70;1.00
35607;DHT22;21729;58.392;15.656;2023-04-29T04:38:46;5.80;1.00
35607;DHT22;21729;58.392;15.656;2023-04-29T04:41:13;5.80;1.00
35607;DHT22;21729;58.392;15.656;2023-04-29T04:43:40;5.80;1.00
35607;DHT22;21729;58.392;15.656;2023-04-29T04:46:13;5.90;1.00
35607;DHT22;21729;58.392;15.656;2023-04-29T04:48:41;6.00;1.00
35607;DHT22;21729;58.392;15.656;2023-04-29T04:51:08;6.10;1.00
35607;DHT22;21729;58.392;15.656;2023-04-29T04:53:36;6.10;1.00
35607;DHT22;21729;58.392;15.656;2023-04-29T04:56:03;6.20;1.00
35607;DHT22;21729;58.392;15.656;2023-04-29T04:58:31;6.20;1.00
35607;DHT22;21729;58.392;15.656;2023-04-29T05:00:58;6.20;1.00
35607;DHT22;21729;58.392;15.656;2023-04-29T05:03:27;6.20;1.00
35607;DHT22;21729;58.392;15.656;2023-04-29T05:05:54;6.20;1.00
35607;DHT22;21729;58.392;15.656;2023-04-29T05:08:21;6.30;1.00
35607;DHT22;21729;58.392;15.656;2023-04-29T05:10:48;6.30;1.00
35607;DHT22;21729;58.392;15.656;2023-04-29T05:13:16;6.40;1.00
35607;DHT22;21729;58.392;15.656;2023-04-29T05:15:44;6.40;1.00
35607;DHT22;21729;58.392;15.656;2023-04-29T05:18:11;6.50;1.00
35607;DHT22;21729;58.392;15.656;2023-04-29T05:20:39;6.60;1.00
35607;DHT22;21729;58.392;15.656;2023-04-29T05:23:06;6.70;1.00
35607;DHT22;21729;58.392;15.656;2023-04-29T05:25:34;6.80;1.00
35607;DHT22;21729;58.392;15.656;2023-04-29T05:28:02;6.90;1.00
35607;DHT22;21729;58.392;15.656;2023-04-29T05:30:29;7.00;1.00
35607;DHT22;21729;58.392;15.656;2023-04-29T05:32:56;7.20;1.00
35607;DHT22;21729;58.392;15.656;2023-04-29T05:35:23;7.20;1.00
35607;DHT22;21729;58.392;15.656;2023-04-29T05:37:52;7.20;1.00
35607;DHT22;21729;58.392;15.656;2023-04-29T05:40:19;7.10;1.00
35607;DHT22;21729;58.392;15.656;2023-04-29T05:42:48;7.10;1.00
35607;DHT22;21729;58.392;15.656;2023-04-29T05:45:15;7.20;1.00
35607;DHT22;21729;58.392;15.656;2023-04-29T05:47:42;7.30;64.00
35607;DHT22;21729;58.392;15.656;2023-04-29T05:50:10;7.30;25.10
35607;DHT22;21729;58.392;15.656;2023-04-29T05:52:37;7.40;38.40
35607;DHT22;21729;58.392;15.656;2023-04-29T05:55:06;7.50;12.10
35607;DHT22;21729;58.392;15.656;2023-04-29T05:57:33;7.60;7.10
35607;DHT22;21729;58.392;15.656;2023-04-29T06:00:00;7.60;5.50
35607;DHT22;21729;58.392;15.656;2023-04-29T06:02:28;7.70;17.10
35607;DHT22;21729;58.392;15.656;2023-04-29T06:04:56;7.70;1.00
35607;DHT22;21729;58.392;15.656;2023-04-29T06:07:23;7.70;1.00
35607;DHT22;21729;58.392;15.656;2023-04-29T06:09:51;7.70;5.20
35607;DHT22;21729;58.392;15.656;2023-04-29T06:12:20;7.90;1.00
35607;DHT22;21729;58.392;15.656;2023-04-29T06:14:47;8.00;15.90
35607;DHT22;21729;58.392;15.656;2023-04-29T06:17:15;8.00;1.00
35607;DHT22;21729;58.392;15.656;2023-04-29T06:19:42;8.10;1.00
35607;DHT22;21729;58.392;15.656;2023-04-29T06:22:09;8.10;1.00
35607;DHT22;21729;58.392;15.656;2023-04-29T06:24:36;8.10;1.00
35607;DHT22;21729;58.392;15.656;2023-04-29T06:27:03;8.20;1.00
35607;DHT22;21729;58.392;15.656;2023-04-29T06:29:32;8.10;1.00
35607;DHT22;21729;58.392;15.656;2023-04-29T06:31:59;8.20;1.00
35607;DHT22;21729;58.392;15.656;2023-04-29T06:34:26;8.20;4.80
35607;DHT22;21729;58.392;15.656;2023-04-29T06:36:53;8.20;1.00
35607;DHT22;21729;58.392;15.656;2023-04-29T06:39:21;8.10;1.00
35607;DHT22;21729;58.392;15.656;2023-04-29T06:41:48;8.20;1.00
35607;DHT22;21729;58.392;15.656;2023-04-29T06:44:15;8.10;1.00
35607;DHT22;21729;58.392;15.656;2023-04-29T06:46:44;8.20;1.00
35607;DHT22;21729;58.392;15.656;2023-04-29T06:49:16;8.30;1.00
35607;DHT22;21729;58.392;15.656;2023-04-29T06:51:43;8.40;1.00
35607;DHT22;21729;58.392;15.656;2023-04-29T06:54:10;8.50;1.00
35607;DHT22;21729;58.392;15.656;2023-04-29T06:56:37;8.60;1.00
35607;DHT22;21729;58.392;15.656;2023-04-29T06:59:04;8.80;1.00
35607;DHT22;21729;58.392;15.656;2023-04-29T07:01:32;9.20;1.00
35607;DHT22;21729;58.392;15.656;2023-04-29T07:04:00;9.80;1.00
35607;DHT22;21729;58.392;15.656;2023-04-29T07:06:28;9.70;1.00
35607;DHT22;21729;58.392;15.656;2023-04-29T07:08:55;10.00;1.00
35607;DHT22;21729;58.392;15.656;2023-04-29T07:11:22;9.90;1.00
35607;DHT22;21729;58.392;15.656;2023-04-29T07:13:51;10.00;1.00
35607;DHT22;21729;58.392;15.656;2023-04-29T07:16:19;10.40;1.00
35607;DHT22;21729;58.392;15.656;2023-04-29T07:18:47;10.50;1.00
35607;DHT22;21729;58.392;15.656;2023-04-29T07:21:15;10.50;1.00
35607;DHT22;21729;58.392;15.656;2023-04-29T07:23:42;10.50;99.90
35607;DHT22;21729;58.392;15.656;2023-04-29T07:26:10;10.60;1.40
35607;DHT22;21729;58.392;15.656;2023-04-29T07:28:38;10.30;1.00
35607;DHT22;21729;58.392;15.656;2023-04-29T07:31:05;10.30;99.90
35607;DHT22;21729;58.392;15.656;2023-04-29T07:33:33;10.40;99.90
35607;DHT22;21729;58.392;15.656;2023-04-29T07:36:00;11.10;1.00
35607;DHT22;21729;58.392;15.656;2023-04-29T07:38:29;11.50;99.90
35607;DHT22;21729;58.392;15.656;2023-04-29T07:40:56;11.20;99.90
35607;DHT22;21729;58.392;15.656;2023-04-29T07:43:23;11.20;99.90
35607;DHT22;21729;58.392;15.656;2023-04-29T07:45:51;11.30;99.90
35607;DHT22;21729;58.392;15.656;2023-04-29T07:48:18;10.80;99.90
35607;DHT22;21729;58.392;15.656;2023-04-29T07:50:46;10.90;99.90
35607;DHT22;21729;58.392;15.656;2023-04-29T07:53:13;11.10;99.90
35607;DHT22;21729;58.392;15.656;2023-04-29T07:55:44;11.00;99.90
35607;DHT22;21729;58.392;15.656;2023-04-29T07:58:12;11.40;99.90
35607;DHT22;21729;58.392;15.656;2023-04-29T08:00:39;12.00;99.90
35607;DHT22;21729;58.392;15.656;2023-04-29T08:03:06;12.70;99.90
35607;DHT22;21729;58.392;15.656;2023-04-29T08:05:33;13.10;99.90
35607;DHT22;21729;58.392;15.656;2023-04-29T08:08:01;13.20;99.90
35607;DHT22;21729;58.392;15.656;2023-04-29T08:10:28;12.50;99.90
35607;DHT22;21729;58.392;15.656;2023-04-29T08:12:57;12.40;99.90
35607;DHT22;21729;58.392;15.656;2023-04-29T08:15:24;12.70;99.90
35607;DHT22;21729;58.392;15.656;2023-04-29T08:17:51;12.80;99.90
35607;DHT22;21729;58.392;15.656;2023-04-29T08:20:18;13.00;99.90
35607;DHT22;21729;58.392;15.656;2023-04-29T08:22:46;13.60;99.90
35607;DHT22;21729;58.392;15.656;2023-04-29T08:25:13;13.70;99.90
35607;DHT22;21729;58.392;15.656;2023-04-29T08:27:40;13.40;99.90
35607;DHT22;21729;58.392;15.656;2023-04-29T08:30:10;13.50;99.90
35607;DHT22;21729;58.392;15.656;2023-04-29T08:32:37;13.20;99.90
35607;DHT22;21729;58.392;15.656;2023-04-29T08:35:05;13.30;99.90
35607;DHT22;21729;58.392;15.656;2023-04-29T08:37:32;13.40;99.90
35607;DHT22;21729;58.392;15.656;2023-04-29T08:39:59;13.50;99.90
35607;DHT22;21729;58.392;15.656;2023-04-29T08:42:32;14.30;99.90
35607;DHT22;21729;58.392;15.656;2023-04-29T08:44:59;13.60;99.90
35607;DHT22;21729;58.392;15.656;2023-04-29T08:47:30;13.00;99.90
35607;DHT22;21729;58.392;15.656;2023-04-29T08:50:01;12.90;99.90
35607;DHT22;21729;58.392;15.656;2023-04-29T08:52:29;13.60;99.90
35607;DHT22;21729;58.392;15.656;2023-04-29T08:54:57;14.40;99.90
35607;DHT22;21729;58.392;15.656;2023-04-29T08:57:25;15.60;99.90
35607;DHT22;21729;58.392;15.656;2023-04-29T08:59:54;15.50;99.90
35607;DHT22;21729;58.392;15.656;2023-04-29T09:02:21;15.00;99.90
35607;DHT22;21729;58.392;15.656;2023-04-29T09:04:59;14.50;99.90
35607;DHT22;21729;58.392;15.656;2023-04-29T09:07:30;14.20;99.90
35607;DHT22;21729;58.392;15.656;2023-04-29T09:09:58;13.70;99.90
35607;DHT22;21729;58.392;15.656;2023-04-29T09:12:26;13.80;99.90
35607;DHT22;21729;58.392;15.656;2023-04-29T09:14:55;14.30;99.90
35607;DHT22;21729;58.392;15.656;2023-04-29T09:17:38;14.20;99.90
35607;DHT22;21729;58.392;15.656;2023-04-29T09:20:25;13.80;99.90
35607;DHT22;21729;58.392;15.656;2023-04-29T09:22:54;14.40;99.90
35607;DHT22;21729;58.392;15.656;2023-04-29T09:25:22;14.40;99.90
35607;DHT22;21729;58.392;15.656;2023-04-29T09:27:49;13.90;99.90
35607;DHT22;21729;58.392;15.656;2023-04-29T09:30:17;13.60;99.90
35607;DHT22;21729;58.392;15.656;2023-04-29T09:32:44;13.40;99.90
35607;DHT22;21729;58.392;15.656;2023-04-29T09:35:24;13.30;99.90
35607;DHT22;21729;58.392;15.656;2023-04-29T09:37:51;13.20;99.90
35607;DHT22;21729;58.392;15.656;2023-04-29T09:40:29;13.30;99.90
35607;DHT22;21729;58.392;15.656;2023-04-29T09:42:56;13.30;99.90
35607;DHT22;21729;58.392;15.656;2023-04-29T09:45:33;13.40;99.90
35607;DHT22;21729;58.392;15.656;2023-04-29T09:48:01;13.70;99.90
35607;DHT22;21729;58.392;15.656;2023-04-29T09:50:31;14.20;99.90
35607;DHT22;21729;58.392;15.656;2023-04-29T09:52:58;13.70;99.90
35607;DHT22;21729;58.392;15.656;2023-04-29T09:55:25;13.70;99.90
35607;DHT22;21729;58.392;15.656;2023-04-29T09:57:54;13.40;99.90
35607;DHT22;21729;58.392;15.656;2023-04-29T10:00:21;13.20;99.90
35607;DHT22;21729;58.392;15.656;2023-04-29T10:02:48;13.30;99.90
35607;DHT22;21729;58.392;15.656;2023-04-29T10:05:16;13.20;99.90
35607;DHT22;21729;58.392;15.656;2023-04-29T10:07:46;13.90;99.90
35607;DHT22;21729;58.392;15.656;2023-04-29T10:10:16;13.50;99.90
35607;DHT22;21729;58.392;15.656;2023-04-29T10:12:45;13.10;99.90
35607;DHT22;21729;58.392;15.656;2023-04-29T10:15:19;12.90;99.90
35607;DHT22;21729;58.392;15.656;2023-04-29T10:17:50;12.80;99.90
35607;DHT22;21729;58.392;15.656;2023-04-29T10:20:21;12.40;99.90
35607;DHT22;21729;58.392;15.656;2023-04-29T10:22:51;12.70;99.90
35607;DHT22;21729;58.392;15.656;2023-04-29T10:25:20;12.70;99.90
35607;DHT22;21729;58.392;15.656;2023-04-29T10:27:48;12.90;99.90
35607;DHT22;21729;58.392;15.656;2023-04-29T10:30:18;12.90;99.90
35607;DHT22;21729;58.392;15.656;2023-04-29T10:32:47;12.90;99.90
35607;DHT22;21729;58.392;15.656;2023-04-29T10:35:16;12.90;99.90
35607;DHT22;21729;58.392;15.656;2023-04-29T10:37:45;13.40;99.90
35607;DHT22;21729;58.392;15.656;2023-04-29T10:40:16;13.30;99.90
35607;DHT22;21729;58.392;15.656;2023-04-29T10:42:47;12.90;99.90
35607;DHT22;21729;58.392;15.656;2023-04-29T10:45:23;13.20;99.90
35607;DHT22;21729;58.392;15.656;2023-04-29T10:48:14;13.80;99.90
35607;DHT22;21729;58.392;15.656;2023-04-29T10:51:07;14.00;99.90
35607;DHT22;21729;58.392;15.656;2023-04-29T10:53:34;14.30;99.90
35607;DHT22;21729;58.392;15.656;2023-04-29T10:56:07;14.30;99.90
35607;DHT22;21729;58.392;15.656;2023-04-29T10:58:45;14.40;99.90
35607;DHT22;21729;58.392;15.656;2023-04-29T11:01:13;14.30;99.90
35607;DHT22;21729;58.392;15.656;2023-04-29T11:03:54;13.70;99.90
35607;DHT22;21729;58.392;15.656;2023-04-29T11:06:25;13.60;99.90
35607;DHT22;21729;58.392;15.656;2023-04-29T11:09:03;13.00;99.90
35607;DHT22;21729;58.392;15.656;2023-04-29T11:14:33;12.40;99.90
35607;DHT22;21729;58.392;15.656;2023-04-29T11:17:03;12.30;99.90
35607;DHT22;21729;58.392;15.656;2023-04-29T11:19:31;12.30;99.90
35607;DHT22;21729;58.392;15.656;2023-04-29T11:22:24;12.50;99.90
35607;DHT22;21729;58.392;15.656;2023-04-29T11:24:53;12.90;99.90
35607;DHT22;21729;58.392;15.656;2023-04-29T11:27:23;12.90;99.90
35607;DHT22;21729;58.392;15.656;2023-04-29T11:29:54;12.70;99.90
35607;DHT22;21729;58.392;15.656;2023-04-29T11:32:23;12.70;99.90
35607;DHT22;21729;58.392;15.656;2023-04-29T11:34:50;12.50;99.90
35607;DHT22;21729;58.392;15.656;2023-04-29T11:37:22;12.30;99.90
35607;DHT22;21729;58.392;15.656;2023-04-29T11:39:50;12.10;99.90
35607;DHT22;21729;58.392;15.656;2023-04-29T11:42:20;12.30;99.90
35607;DHT22;21729;58.392;15.656;2023-04-29T11:44:50;12.40;99.90
35607;DHT22;21729;58.392;15.656;2023-04-29T11:47:18;12.20;99.90
35607;DHT22;21729;58.392;15.656;2023-04-29T11:49:47;12.40;99.90
35607;DHT22;21729;58.392;15.656;2023-04-29T11:52:14;12.50;99.90
35607;DHT22;21729;58.392;15.656;2023-04-29T11:54:42;12.30;99.90
35607;DHT22;21729;58.392;15.656;2023-04-29T11:57:09;12.10;99.90
35607;DHT22;21729;58.392;15.656;2023-04-29T11:59:36;11.90;99.90
35607;DHT22;21729;58.392;15.656;2023-04-29T12:02:05;11.90;99.90
35607;DHT22;21729;58.392;15.656;2023-04-29T12:04:44;11.70;99.90
35607;DHT22;21729;58.392;15.656;2023-04-29T12:07:13;11.50;99.90
35607;DHT22;21729;58.392;15.656;2023-04-29T12:09:41;11.50;99.90
35607;DHT22;21729;58.392;15.656;2023-04-29T12:12:10;11.60;99.90
35607;DHT22;21729;58.392;15.656;2023-04-29T12:14:37;11.50;99.90
35607;DHT22;21729;58.392;15.656;2023-04-29T12:17:06;11.70;99.90
35607;DHT22;21729;58.392;15.656;2023-04-29T12:19:34;12.00;99.90
35607;DHT22;21729;58.392;15.656;2023-04-29T12:22:03;12.10;99.90
35607;DHT22;21729;58.392;15.656;2023-04-29T12:24:33;12.30;99.90
35607;DHT22;21729;58.392;15.656;2023-04-29T12:27:01;12.60;99.90
35607;DHT22;21729;58.392;15.656;2023-04-29T12:29:30;12.50;99.90
35607;DHT22;21729;58.392;15.656;2023-04-29T12:31:57;12.30;99.90
35607;DHT22;21729;58.392;15.656;2023-04-29T12:34:27;12.40;99.90
35607;DHT22;21729;58.392;15.656;2023-04-29T12:36:55;12.30;99.90
35607;DHT22;21729;58.392;15.656;2023-04-29T12:39:23;12.20;99.90
35607;DHT22;21729;58.392;15.656;2023-04-29T12:41:54;12.10;99.90
35607;DHT22;21729;58.392;15.656;2023-04-29T12:44:22;12.40;99.90
35607;DHT22;21729;58.392;15.656;2023-04-29T12:46:49;12.30;99.90
35607;DHT22;21729;58.392;15.656;2023-04-29T12:49:18;12.30;99.90
35607;DHT22;21729;58.392;15.656;2023-04-29T12:51:47;12.40;99.90
35607;DHT22;21729;58.392;15.656;2023-04-29T12:54:14;12.30;99.90
35607;DHT22;21729;58.392;15.656;2023-04-29T12:56:41;11.80;99.90
35607;DHT22;21729;58.392;15.656;2023-04-29T12:59:09;11.70;99.90
35607;DHT22;21729;58.392;15.656;2023-04-29T13:01:37;11.50;99.90
35607;DHT22;21729;58.392;15.656;2023-04-29T13:04:05;11.20;99.90
35607;DHT22;21729;58.392;15.656;2023-04-29T13:06:33;11.40;99.90
35607;DHT22;21729;58.392;15.656;2023-04-29T13:09:06;11.60;99.90
35607;DHT22;21729;58.392;15.656;2023-04-29T13:11:36;11.80;99.90
35607;DHT22;21729;58.392;15.656;2023-04-29T13:14:04;11.70;99.90
35607;DHT22;21729;58.392;15.656;2023-04-29T13:16:31;11.80;99.90
35607;DHT22;21729;58.392;15.656;2023-04-29T13:18:59;12.00;99.90
35607;DHT22;21729;58.392;15.656;2023-04-29T13:21:26;11.50;99.90
35607;DHT22;21729;58.392;15.656;2023-04-29T13:23:54;11.30;99.90
35607;DHT22;21729;58.392;15.656;2023-04-29T13:26:22;11.00;99.90
35607;DHT22;21729;58.392;15.656;2023-04-29T13:28:50;10.40;99.90
35607;DHT22;21729;58.392;15.656;2023-04-29T13:31:17;9.60;62.30
35607;DHT22;21729;58.392;15.656;2023-04-29T13:33:44;9.10;99.90
35607;DHT22;21729;58.392;15.656;2023-04-29T13:36:13;9.10;99.90
35607;DHT22;21729;58.392;15.656;2023-04-29T13:38:40;9.50;99.90
35607;DHT22;21729;58.392;15.656;2023-04-29T13:41:07;10.20;99.90
35607;DHT22;21729;58.392;15.656;2023-04-29T13:43:35;10.40;99.90
35607;DHT22;21729;58.392;15.656;2023-04-29T13:46:03;10.40;99.90
35607;DHT22;21729;58.392;15.656;2023-04-29T13:48:30;10.10;99.90
35607;DHT22;21729;58.392;15.656;2023-04-29T13:50:57;10.00;99.90
35607;DHT22;21729;58.392;15.656;2023-04-29T13:53:24;10.00;99.90
35607;DHT22;21729;58.392;15.656;2023-04-29T13:55:51;10.20;45.80
35607;DHT22;21729;58.392;15.656;2023-04-29T13:58:19;10.20;33.00
35607;DHT22;21729;58.392;15.656;2023-04-29T14:00:47;10.30;1.00
35607;DHT22;21729;58.392;15.656;2023-04-29T14:03:14;10.30;1.00
35607;DHT22;21729;58.392;15.656;2023-04-29T14:05:43;10.30;1.00
35607;DHT22;21729;58.392;15.656;2023-04-29T14:08:10;10.30;1.00
35607;DHT22;21729;58.392;15.656;2023-04-29T14:10:38;10.30;1.00
35607;DHT22;21729;58.392;15.656;2023-04-29T14:13:05;10.20;1.00
35607;DHT22;21729;58.392;15.656;2023-04-29T14:15:32;10.10;1.00
35607;DHT22;21729;58.392;15.656;2023-04-29T14:18:00;10.10;1.00
35607;DHT22;21729;58.392;15.656;2023-04-29T14:20:27;10.20;1.00
35607;DHT22;21729;58.392;15.656;2023-04-29T14:22:54;10.30;1.00
35607;DHT22;21729;58.392;15.656;2023-04-29T14:25:22;10.20;1.00
35607;DHT22;21729;58.392;15.656;2023-04-29T14:27:49;10.10;1.00
35607;DHT22;21729;58.392;15.656;2023-04-29T14:30:16;9.90;1.00
35607;DHT22;21729;58.392;15.656;2023-04-29T14:32:43;9.80;1.00
35607;DHT22;21729;58.392;15.656;2023-04-29T14:35:12;9.40;1.00
35607;DHT22;21729;58.392;15.656;2023-04-29T14:37:39;9.00;99.90
35607;DHT22;21729;58.392;15.656;2023-04-29T14:40:07;9.10;29.40
35607;DHT22;21729;58.392;15.656;2023-04-29T14:42:35;9.40;39.00
35607;DHT22;21729;58.392;15.656;2023-04-29T14:45:02;9.70;91.00
35607;DHT22;21729;58.392;15.656;2023-04-29T14:47:29;10.10;99.90
35607;DHT22;21729;58.392;15.656;2023-04-29T14:49:57;10.20;50.80
35607;DHT22;21729;58.392;15.656;2023-04-29T14:52:26;10.10;1.00
35607;DHT22;21729;58.392;15.656;2023-04-29T14:54:53;9.90;1.00
35607;DHT22;21729;58.392;15.656;2023-04-29T14:57:20;9.80;1.00
35607;DHT22;21729;58.392;15.656;2023-04-29T14:59:48;9.80;1.00
35607;DHT22;21729;58.392;15.656;2023-04-29T15:02:15;9.80;1.00
35607;DHT22;21729;58.392;15.656;2023-04-29T15:04:42;9.80;1.00
35607;DHT22;21729;58.392;15.656;2023-04-29T15:07:11;9.80;1.00
35607;DHT22;21729;58.392;15.656;2023-04-29T15:09:39;9.80;1.00
35607;DHT22;21729;58.392;15.656;2023-04-29T15:12:07;9.80;1.00
35607;DHT22;21729;58.392;15.656;2023-04-29T15:14:35;9.80;1.00
35607;DHT22;21729;58.392;15.656;2023-04-29T15:17:02;9.60;1.00
35607;DHT22;21729;58.392;15.656;2023-04-29T15:19:29;9.80;1.00
35607;DHT22;21729;58.392;15.656;2023-04-29T15:21:56;9.90;1.00
35607;DHT22;21729;58.392;15.656;2023-04-29T15:24:23;10.00;1.00
35607;DHT22;21729;58.392;15.656;2023-04-29T15:26:53;10.10;1.00
35607;DHT22;21729;58.392;15.656;2023-04-29T15:29:20;10.10;1.00
35607;DHT22;21729;58.392;15.656;2023-04-29T15:31:48;10.10;1.00
35607;DHT22;21729;58.392;15.656;2023-04-29T15:34:15;10.20;1.00
35607;DHT22;21729;58.392;15.656;2023-04-29T15:36:43;10.40;1.00
35607;DHT22;21729;58.392;15.656;2023-04-29T15:39:10;10.70;99.90